.
WxDataArchive / Data Records for 2013-06-05
2013-06-04 June 2013 2013-06-06

Data Records for Wednesday, 05 June 2013

Time	Temp	Chill	HIndex	Humid	Dewpt	 Wind 	HiWind	WindDir	Rain 	Barom 
-----	----	-----	------	-----	-----	------	------	-------	-----	----- 
00:00	60.9	60.9	60.9	57	45.6	1	4	68	0.00	30.113 
00:05	60.7	60.7	60.7	57	45.4	1	4	68	0.00	30.113 
00:10	60.5	60.5	60.5	58	45.6	1	4	90	0.00	30.113 
00:15	60.4	60.4	60.4	58	45.6	1	3	68	0.00	30.114 
00:20	60.2	60.2	60.2	58	45.4	1	4	68	0.00	30.114 
00:25	60.2	60.2	60.2	58	45.4	1	5	68	0.00	30.114 
00:30	60.1	60.1	60.1	58	45.3	1	3	90	0.00	30.112 
00:35	60.1	60.1	60.1	58	45.3	1	3	90	0.00	30.112 
00:40	59.9	59.9	59.9	59	45.5	1	4	90	0.00	30.112 
00:45	59.8	59.8	59.8	60	45.9	1	4	90	0.00	30.117 
00:50	59.6	59.6	59.6	61	46.1	0	2	90	0.00	30.117 
00:55	59.5	59.5	59.5	61	46.0	0	2	90	0.00	30.117 
01:00	59.3	59.3	59.3	60	45.4	1	3	90	0.00	30.122 
01:05	59.3	59.3	59.3	60	45.4	1	3	90	0.00	30.122 
01:10	59.2	59.2	59.2	60	45.3	1	3	90	0.00	30.122 
01:15	59.2	59.2	59.2	60	45.3	1	4	90	0.00	30.116 
01:20	59.0	59.0	59.0	59	44.7	2	5	90	0.00	30.116 
01:25	59.0	59.0	59.0	59	44.7	1	4	90	0.00	30.116 
01:30	58.9	58.9	58.9	59	44.6	1	4	90	0.00	30.110 
01:35	58.7	58.7	58.7	59	44.4	1	3	90	0.00	30.110 
01:40	58.6	58.6	58.6	59	44.3	1	5	68	0.00	30.110 
01:45	58.6	58.6	58.6	59	44.3	1	4	90	0.00	30.108 
01:50	58.4	58.4	58.4	59	44.1	1	4	68	0.00	30.108 
01:55	58.4	58.4	58.4	58	43.7	2	5	90	0.00	30.108 
02:00	58.4	58.4	58.4	58	43.7	1	3	90	0.00	30.111 
02:05	58.3	58.3	58.3	58	43.6	1	3	90	0.00	30.111 
02:10	58.3	58.3	58.3	58	43.6	1	4	68	0.00	30.111 
02:15	58.1	58.1	58.1	58	43.4	2	4	68	0.00	30.107 
02:20	58.1	58.1	58.1	58	43.4	1	3	68	0.00	30.107 
02:25	58.0	58.0	58.0	58	43.3	1	5	68	0.00	30.107 
02:30	58.0	58.0	58.0	58	43.3	1	3	68	0.00	30.103 
02:35	57.8	57.8	57.8	58	43.1	1	5	68	0.00	30.103 
02:40	57.6	57.6	57.6	58	42.9	1	5	68	0.00	30.103 
02:45	57.5	57.5	57.5	58	42.8	1	4	68	0.00	30.103 
02:50	57.5	57.5	57.5	58	42.8	1	3	68	0.00	30.103 
02:55	57.3	57.3	57.3	58	42.6	1	3	68	0.00	30.103 
03:00	57.2	57.2	57.2	58	42.6	1	3	68	0.00	30.096 
03:05	57.2	57.2	57.2	58	42.6	2	4	68	0.00	30.096 
03:10	57.2	57.2	57.2	59	43.0	1	3	68	0.00	30.096 
03:15	57.0	57.0	57.0	59	42.8	1	2	68	0.00	30.090 
03:20	56.9	56.9	56.9	59	42.7	1	3	68	0.00	30.090 
03:25	56.7	56.7	56.7	60	43.0	1	3	68	0.00	30.090 
03:30	56.6	56.6	56.6	60	42.9	1	3	68	0.00	30.088 
03:35	56.5	56.5	56.5	60	42.8	1	2	68	0.00	30.088 
03:40	56.5	56.5	56.5	61	43.2	1	3	68	0.00	30.088 
03:45	56.3	56.3	56.3	61	43.0	1	2	68	0.00	30.090 
03:50	56.2	56.2	56.2	62	43.4	1	3	68	0.00	30.090 
03:55	56.0	56.0	56.0	62	43.2	0	2	90	0.00	30.090 
04:00	55.9	55.9	55.9	63	43.5	0	3	90	0.00	30.091 
04:05	55.7	55.7	55.7	63	43.3	1	2	90	0.00	30.091 
04:10	55.6	55.6	55.6	64	43.6	0	3	90	0.00	30.091 
04:15	55.4	55.4	55.4	65	43.8	0	3	90	0.00	30.092 
04:20	55.1	55.1	55.1	66	43.9	0	3	90	0.00	30.092 
04:25	55.0	55.0	55.0	68	44.6	0	1	90	0.00	30.092 
04:30	54.8	54.8	54.8	68	44.4	0	2	90	0.00	30.095 
04:35	54.8	54.8	54.8	67	44.1	1	3	90	0.00	30.095 
04:40	54.7	54.7	54.7	67	44.0	0	2	90	0.00	30.095 
04:45	54.7	54.7	54.7	68	44.3	0	2	90	0.00	30.097 
04:50	54.5	54.5	54.5	68	44.2	0	2	90	0.00	30.097 
04:55	54.4	54.4	54.4	68	44.1	0	2	90	0.00	30.097 
05:00	54.2	54.2	54.2	69	44.3	0	0	---	0.00	30.104 
05:05	54.1	54.1	54.1	69	44.2	0	0	---	0.00	30.104 
05:10	53.9	53.9	53.9	69	44.0	0	0	---	0.00	30.104 
05:15	53.8	53.8	53.8	69	43.9	0	0	---	0.00	30.102 
05:20	53.6	53.6	53.6	69	43.7	0	1	90	0.00	30.102 
05:25	53.6	53.6	53.6	69	43.7	0	1	90	0.00	30.102 
05:30	53.6	53.6	53.6	69	43.7	0	2	90	0.00	30.101 
05:35	53.6	53.6	53.6	69	43.7	0	1	90	0.00	30.101 
05:40	53.6	53.6	53.6	69	43.7	0	2	90	0.00	30.101 
05:45	53.6	53.6	53.6	69	43.7	0	2	90	0.00	30.099 
05:50	53.8	53.8	53.8	68	43.5	0	2	90	0.00	30.099 
05:55	53.8	53.8	53.8	68	43.5	0	1	90	0.00	30.099 
06:00	53.6	53.6	53.6	69	43.7	0	1	90	0.00	30.106 
06:05	53.6	53.6	53.6	69	43.7	0	3	90	0.00	30.106 
06:10	53.6	53.6	53.6	69	43.7	0	2	90	0.00	30.106 
06:15	53.6	53.6	53.6	69	43.7	0	2	90	0.00	30.106 
06:20	53.5	53.5	53.5	69	43.6	0	1	90	0.00	30.106 
06:25	53.5	53.5	53.5	69	43.6	0	2	90	0.00	30.106 
06:30	53.5	53.5	53.5	70	44.0	0	3	90	0.00	30.104 
06:35	53.5	53.5	53.5	70	44.0	0	3	90	0.00	30.104 
06:40	53.5	53.5	53.5	71	44.3	0	2	90	0.00	30.104 
06:45	53.6	53.6	53.6	71	44.4	1	3	90	0.00	30.098 
06:50	53.6	53.6	53.6	72	44.8	2	5	90	0.00	30.098 
06:55	53.8	53.8	53.8	72	45.0	0	2	112	0.00	30.098 
07:00	53.9	53.9	53.9	72	45.1	1	4	112	0.00	30.108 
07:05	54.1	54.1	54.1	73	45.6	0	1	112	0.00	30.108 
07:10	54.2	54.2	54.2	73	45.7	0	1	112	0.00	30.108 
07:15	54.5	54.5	54.5	73	46.0	1	4	112	0.00	30.115 
07:20	55.0	55.0	55.0	72	46.1	1	4	112	0.00	30.115 
07:25	55.6	55.6	55.6	72	46.7	1	4	112	0.00	30.115 
07:30	56.2	56.2	56.2	71	46.9	1	4	90	0.00	30.112 
07:35	56.6	56.6	56.6	70	46.9	2	6	90	0.00	30.112 
07:40	57.0	57.0	57.0	70	47.3	2	5	112	0.00	30.112 
07:45	57.3	57.3	57.3	69	47.2	2	5	112	0.00	30.110 
07:50	57.8	57.8	57.8	69	47.7	2	4	90	0.00	30.110 
07:55	58.0	58.0	58.0	69	47.9	3	5	90	0.00	30.110 
08:00	58.1	58.1	58.1	69	48.0	2	4	90	0.00	30.108 
08:05	58.6	58.6	58.6	67	47.7	1	6	112	0.00	30.108 
08:10	59.0	59.0	59.0	66	47.7	1	6	112	0.00	30.108 
08:15	59.5	59.5	59.5	65	47.7	2	5	90	0.00	30.110 
08:20	59.3	59.3	59.3	64	47.1	3	6	112	0.00	30.110 
08:25	59.6	59.6	59.6	65	47.8	1	4	90	0.00	30.110 
08:30	59.9	59.9	59.9	64	47.7	2	6	90	0.00	30.113 
08:35	60.2	60.2	60.2	64	48.0	2	6	112	0.00	30.113 
08:40	60.5	60.5	60.5	62	47.4	3	10	90	0.00	30.113 
08:45	60.7	60.7	60.7	63	48.0	2	6	112	0.00	30.106 
08:50	60.9	60.9	60.9	62	47.8	3	10	90	0.00	30.106 
08:55	61.2	61.2	61.2	62	48.1	2	6	90	0.00	30.106 
09:00	61.5	61.5	61.5	60	47.5	3	7	90	0.00	30.098 
09:05	61.6	61.6	61.6	61	48.0	3	8	90	0.00	30.098 
09:10	62.1	62.1	62.1	61	48.5	2	5	90	0.00	30.098 
09:15	62.4	62.4	62.4	59	47.9	3	7	90	0.00	30.095 
09:20	62.9	62.9	62.9	59	48.3	2	6	90	0.00	30.095 
09:25	63.2	63.2	63.2	57	47.7	3	9	90	0.00	30.095 
09:30	63.4	63.4	63.4	55	46.9	3	6	90	0.00	30.094 
09:35	63.4	63.4	63.4	54	46.5	4	8	90	0.00	30.094 
09:40	63.2	63.2	63.2	54	46.3	4	9	90	0.00	30.094 
09:45	63.5	63.5	63.5	57	48.0	3	6	90	0.00	30.091 
09:50	64.2	64.2	64.2	55	47.7	2	5	90	0.00	30.091 
09:55	64.3	64.3	64.3	55	47.8	3	9	90	0.00	30.091 
10:00	64.3	64.3	64.3	57	48.7	4	10	90	0.00	30.080 
10:05	64.3	64.3	64.3	56	48.3	3	8	90	0.00	30.080 
10:10	64.7	64.7	64.7	57	49.1	3	7	90	0.00	30.080 
10:15	65.0	65.0	65.0	56	48.9	3	6	90	0.00	30.071 
10:20	65.2	65.2	65.2	57	49.6	3	6	90	0.00	30.071 
10:25	65.8	65.8	65.8	55	49.2	2	8	112	0.00	30.071 
10:30	66.4	66.4	66.4	53	48.7	2	6	112	0.00	30.071 
10:35	66.9	66.9	66.9	54	49.7	2	7	90	0.00	30.071 
10:40	67.1	67.1	67.1	54	49.9	3	6	90	0.00	30.071 
10:45	67.4	67.4	67.4	53	49.7	2	5	112	0.00	30.047 
10:50	67.4	67.4	67.4	53	49.7	3	7	90	0.00	30.047 
10:55	67.3	67.3	67.3	51	48.5	3	6	112	0.00	30.047 
11:00	67.6	67.6	67.6	55	50.8	2	5	68	0.00	30.051 
11:05	67.9	67.9	67.9	53	50.1	3	7	90	0.00	30.051 
11:10	68.1	68.1	68.1	52	49.8	3	6	112	0.00	30.051 
11:15	68.4	68.4	68.4	54	51.1	2	6	90	0.00	30.043 
11:20	68.9	68.9	68.9	53	51.1	2	4	90	0.00	30.043 
11:25	69.6	69.6	69.6	52	51.2	1	4	90	0.00	30.043 
11:30	69.9	69.9	69.9	52	51.5	2	5	112	0.00	30.041 
11:35	70.1	70.1	70.1	51	51.1	2	6	112	0.00	30.041 
11:40	70.1	70.1	70.1	51	51.1	2	6	90	0.00	30.041 
11:45	70.1	70.1	70.1	51	51.1	2	6	90	0.00	30.044 
11:50	69.8	69.8	69.8	52	51.4	3	6	90	0.00	30.044 
11:55	70.1	70.1	70.1	53	52.2	2	5	112	0.00	30.044 
12:00	70.9	70.9	70.9	50	51.3	2	4	112	0.00	30.036 
12:05	70.9	70.9	70.9	51	51.9	3	9	90	0.00	30.036 
12:10	70.9	70.9	70.9	51	51.9	2	7	90	0.00	30.036 
12:15	70.9	70.9	70.9	50	51.3	3	6	90	0.00	30.037 
12:20	71.1	71.1	71.1	50	51.5	2	5	90	0.00	30.037 
12:25	71.5	71.5	71.5	50	51.9	2	6	90	0.00	30.037 
12:30	71.6	71.6	71.6	50	52.0	2	5	90	0.00	30.031 
12:35	71.8	71.8	71.8	48	51.0	2	5	90	0.00	30.031 
12:40	71.8	71.8	71.8	50	52.1	2	6	90	0.00	30.031 
12:45	71.8	71.8	71.8	49	51.6	2	5	90	0.00	30.030 
12:50	72.0	72.0	72.0	49	51.8	2	7	90	0.00	30.030 
12:55	72.3	72.3	72.3	52	53.7	1	4	90	0.00	30.030 
13:00	72.8	72.8	72.8	47	51.4	1	4	68	0.00	30.028 
13:05	73.2	73.2	73.2	49	52.9	2	5	112	0.00	30.028 
13:10	73.0	73.0	73.0	46	51.0	3	7	90	0.00	30.028 
13:15	72.8	72.8	72.8	48	52.0	2	5	68	0.00	30.030 
13:20	73.2	73.2	73.2	49	52.9	2	5	68	0.00	30.030 
13:25	73.2	73.2	73.2	47	51.7	2	6	112	0.00	30.030 
13:30	73.5	73.5	73.5	46	51.4	0	2	112	0.00	30.026 
13:35	74.0	74.0	74.0	49	53.6	1	4	112	0.00	30.026 
13:40	74.2	74.2	74.2	47	52.7	1	4	112	0.00	30.026 
13:45	74.2	74.2	74.2	50	54.3	2	10	112	0.00	30.024 
13:50	74.0	74.0	74.0	47	52.5	2	7	90	0.00	30.024 
13:55	74.2	74.2	74.2	43	50.2	1	3	90	0.00	30.024 
14:00	74.4	74.4	74.4	47	52.8	2	5	90	0.00	30.014 
14:05	74.6	74.6	74.6	46	52.4	2	5	90	0.00	30.014 
14:10	74.6	74.6	74.6	51	55.3	2	7	90	0.00	30.014 
14:15	74.6	74.6	74.6	45	51.8	2	5	90	0.00	30.009 
14:20	74.6	74.6	74.6	46	52.4	3	6	90	0.00	30.009 
14:25	74.9	74.9	74.9	50	55.0	1	6	90	0.00	30.009 
14:30	74.7	74.7	74.7	47	53.1	3	7	112	0.00	29.995 
14:35	74.6	74.6	74.6	47	53.0	2	5	90	0.00	29.995 
14:40	74.4	74.4	74.4	45	51.7	3	6	90	0.00	29.995 
14:45	74.4	74.4	74.4	44	51.0	2	6	90	0.00	29.997 
14:50	74.6	74.6	74.6	43	50.6	2	4	68	0.00	29.997 
14:55	74.6	74.6	74.6	45	51.8	1	5	90	0.00	29.997 
15:00	75.3	75.3	77.7	44	51.9	2	5	90	0.00	29.993 
15:05	75.4	75.4	77.7	45	52.6	1	5	90	0.00	29.993 
15:10	75.6	75.6	77.7	42	50.9	2	4	90	0.00	29.993 
15:15	75.6	75.6	77.8	44	52.1	2	5	90	0.00	29.986 
15:20	76.0	76.0	78.0	45	53.1	2	6	90	0.00	29.986 
15:25	75.8	75.8	77.8	43	51.7	2	6	90	0.00	29.986 
15:30	75.8	75.8	77.9	44	52.3	3	10	90	0.00	29.981 
15:35	75.8	75.8	77.8	42	51.1	2	6	112	0.00	29.981 
15:40	75.8	75.8	77.9	44	52.3	2	7	90	0.00	29.981 
15:45	76.0	76.0	78.0	44	52.5	1	5	90	0.00	29.975 
15:50	76.1	76.1	78.0	45	53.2	2	4	112	0.00	29.975 
15:55	76.3	76.3	78.1	44	52.8	1	4	112	0.00	29.975 
16:00	76.1	76.1	78.0	44	52.6	2	7	90	0.00	29.969 
16:05	76.5	76.5	78.2	46	54.2	1	5	112	0.00	29.969 
16:10	76.1	76.1	77.9	42	51.3	2	6	112	0.00	29.969 
16:15	75.4	75.4	77.7	42	50.7	2	6	112	0.00	29.969 
16:20	75.4	75.4	77.7	43	51.3	1	5	112	0.00	29.969 
16:25	75.8	75.8	77.9	44	52.3	2	6	112	0.00	29.969 
16:30	76.0	76.0	77.9	42	51.2	2	6	68	0.00	29.965 
16:35	76.0	76.0	77.9	42	51.2	1	5	90	0.00	29.965 
16:40	76.1	76.1	78.0	43	52.0	2	7	90	0.00	29.965 
16:45	75.8	75.8	77.8	42	51.1	3	6	90	0.00	29.962 
16:50	75.6	75.6	77.7	42	50.9	1	6	90	0.00	29.962 
16:55	75.4	75.4	77.7	45	52.6	2	5	112	0.00	29.962 
17:00	75.8	75.8	77.9	44	52.3	1	4	112	0.00	29.958 
17:05	76.1	76.1	77.9	41	50.7	1	6	90	0.00	29.958 
17:10	76.0	76.0	78.0	44	52.5	1	4	90	0.00	29.958 
17:15	76.0	76.0	77.8	40	49.9	2	5	90	0.00	29.954 
17:20	75.6	75.6	77.7	41	50.2	3	8	112	0.00	29.954 
17:25	75.1	75.1	77.6	43	51.1	2	5	90	0.00	29.954 
17:30	75.3	75.3	77.6	42	50.6	2	6	90	0.00	29.950 
17:35	75.3	75.3	77.7	45	52.5	3	9	112	0.00	29.950 
17:40	75.3	75.3	77.6	42	50.6	2	5	112	0.00	29.950 
17:45	75.4	75.4	77.7	43	51.3	2	6	112	0.00	29.945 
17:50	75.6	75.6	77.7	40	49.6	2	7	90	0.00	29.945 
17:55	75.4	75.4	77.6	39	48.7	3	9	90	0.00	29.945 
18:00	75.3	75.3	77.6	42	50.6	1	3	112	0.00	29.936 
18:05	74.9	74.9	74.9	40	48.9	3	7	90	0.00	29.936 
18:10	74.6	74.6	74.6	41	49.3	2	6	45	0.00	29.936 
18:15	74.4	74.4	74.4	43	50.4	2	4	90	0.00	29.941 
18:20	74.4	74.4	74.4	41	49.1	1	5	68	0.00	29.941 
18:25	74.4	74.4	74.4	41	49.1	2	5	90	0.00	29.941 
18:30	74.6	74.6	74.6	42	50.0	2	6	90	0.00	29.932 
18:35	74.7	74.7	74.7	42	50.1	2	5	90	0.00	29.932 
18:40	74.6	74.6	74.6	41	49.3	2	5	90	0.00	29.932 
18:45	74.4	74.4	74.4	40	48.5	2	5	90	0.00	29.928 
18:50	74.2	74.2	74.2	42	49.6	2	5	135	0.00	29.928 
18:55	73.9	73.9	73.9	43	50.0	2	6	68	0.00	29.928 
19:00	73.9	73.9	73.9	44	50.6	2	5	112	0.00	29.926 
19:05	73.9	73.9	73.9	47	52.4	2	5	112	0.00	29.926 
19:10	73.5	73.5	73.5	46	51.4	1	4	112	0.00	29.926 
19:15	73.2	73.2	73.2	45	50.6	2	5	90	0.00	29.922 
19:20	73.0	73.0	73.0	46	51.0	2	6	90	0.00	29.922 
19:25	72.8	72.8	72.8	46	50.8	3	6	112	0.00	29.922 
19:30	72.8	72.8	72.8	46	50.8	2	7	135	0.00	29.917 
19:35	72.7	72.7	72.7	46	50.7	2	5	112	0.00	29.917 
19:40	72.5	72.5	72.5	46	50.5	2	7	90	0.00	29.917 
19:45	72.3	72.3	72.3	46	50.3	2	7	112	0.00	29.916 
19:50	72.1	72.1	72.1	46	50.2	3	9	112	0.00	29.916 
19:55	72.0	72.0	72.0	47	50.7	2	7	90	0.00	29.916 
20:00	71.8	71.8	71.8	47	50.5	2	5	112	0.00	29.921 
20:05	71.6	71.6	71.6	48	50.9	3	13	90	0.00	29.921 
20:10	71.5	71.5	71.5	47	50.2	2	9	90	0.00	29.921 
20:15	71.1	71.1	71.1	47	49.8	2	5	90	0.00	29.921 
20:20	70.8	70.8	70.8	48	50.1	2	6	112	0.00	29.921 
20:25	70.4	70.4	70.4	47	49.2	2	7	112	0.00	29.921 
20:30	70.1	70.1	70.1	47	48.9	1	5	112	0.00	29.925 
20:35	69.8	69.8	69.8	47	48.6	3	8	90	0.00	29.925 
20:40	69.6	69.6	69.6	47	48.5	3	7	112	0.00	29.925 
20:45	69.3	69.3	69.3	46	47.6	2	4	112	0.00	29.931 
20:50	68.9	68.9	68.9	46	47.3	3	10	112	0.00	29.931 
20:55	68.6	68.6	68.6	45	46.4	3	8	90	0.00	29.931 
21:00	68.3	68.3	68.3	44	45.5	3	9	90	0.00	29.932 
21:05	67.9	67.9	67.9	43	44.6	2	6	90	0.00	29.932 
21:10	67.4	67.4	67.4	43	44.1	2	9	90	0.00	29.932 
21:15	67.1	67.1	67.1	43	43.8	1	4	90	0.00	29.927 
21:20	66.6	66.6	66.6	43	43.4	1	4	112	0.00	29.927 
21:25	66.3	66.3	66.3	41	41.9	1	3	112	0.00	29.927 
21:30	66.0	66.0	66.0	40	41.0	1	3	112	0.00	29.925 
21:35	65.6	65.6	65.6	40	40.6	1	5	112	0.00	29.925 
21:40	65.3	65.3	65.3	36	37.7	2	6	112	0.00	29.925 
21:45	65.2	65.2	65.2	36	37.6	1	9	90	0.00	29.930 
21:50	65.0	65.0	65.0	34	35.9	1	4	112	0.00	29.930 
21:55	64.8	64.8	64.8	33	35.0	1	5	112	0.00	29.930 
22:00	64.5	64.5	64.5	35	36.2	0	2	112	0.00	29.935 
22:05	64.3	64.3	64.3	35	36.1	0	4	112	0.00	29.935 
22:10	64.0	64.0	64.0	35	35.8	0	3	90	0.00	29.935 
22:15	63.7	63.7	63.7	37	36.9	0	2	90	0.00	29.934 
22:20	63.4	63.4	63.4	38	37.3	1	4	90	0.00	29.934 
22:25	63.2	63.2	63.2	38	37.2	2	5	90	0.00	29.934 
22:30	62.9	62.9	62.9	39	37.6	1	3	90	0.00	29.935 
22:35	62.7	62.7	62.7	38	36.7	2	5	90	0.00	29.935 
22:40	62.6	62.6	62.6	39	37.3	1	3	90	0.00	29.935 
22:45	62.4	62.4	62.4	40	37.8	1	4	90	0.00	29.939 
22:50	62.1	62.1	62.1	42	38.7	1	2	90	0.00	29.939 
22:55	61.8	61.8	61.8	43	39.1	1	2	90	0.00	29.939 
23:00	61.5	61.5	61.5	44	39.4	1	3	90	0.00	29.940 
23:05	61.3	61.3	61.3	46	40.3	1	4	90	0.00	29.940 
23:10	61.0	61.0	61.0	47	40.6	1	4	90	0.00	29.940 
23:15	61.0	61.0	61.0	49	41.7	2	6	90	0.00	29.933 
23:20	61.0	61.0	61.0	50	42.2	2	5	112	0.00	29.933 
23:25	60.9	60.9	60.9	51	42.6	1	4	90	0.00	29.933 
23:30	60.7	60.7	60.7	51	42.5	1	4	90	0.00	29.936 
23:35	60.5	60.5	60.5	53	43.3	1	3	90	0.00	29.936 
23:40	60.5	60.5	60.5	54	43.8	1	3	90	0.00	29.936 
23:45	60.4	60.4	60.4	55	44.2	1	5	90	0.00	29.939 
23:50	60.2	60.2	60.2	56	44.4	0	2	90	0.00	29.939 
23:55	60.1	60.1	60.1	57	44.8	0	1	90	0.00	29.939 

CoCoRaHS
IN-AL-39
A2 Web Hosting
Creative Commons License
GoDaddy
search engine by freefind advanced

loaded 2018-11-15 18:56:29 • last modified 2010-11-18 10:43:29
Privacy PolicyDisclaimer
• wx.awcolley.com is powered by PmWiki v.2002016 •
• all content (unless otherwise noted) © 2018 A W Colley